Terminal Aerodrome Forecast
Issued by NWS

Home | Current Version | Previous Version | Text Only | Print | Product List | Glossary On
Versions: 1 2 3 4 5 6 7 8 9 10 11 12 13 14 15 16 17 18
000
FTUS41 KBGM 162328
TAFELM
TAF
KELM 162328Z 1700/1724 VRB03KT P6SM OVC080
     FM170300 VRB03KT P6SM OVC050
     FM171100 VRB03KT 5SM -FZRA BR OVC028
     FM171300 VRB03KT 3SM -RA BR OVC015
     FM171500 VRB04KT 4SM -RA BR OVC008=

USA.gov is the U.S. government's official web portal to all federal, state and local government web resources and services.